Juneau, WI

2:40 PM CDT en Agosto 24, 2016 (GMT -0500)
Dodge County | | Change Station

Alt 935 ft 43.43 °N, 88.70 °W | Updated 5 minutes ago

Overcast
Nublado
80 ° F
Sensación térmica 80 ° F
N
15
Viento Variable Viento desde SSO
Gusts 18 mph

Hoy
Alta -- | Baja -- ° F
--% Posibilidad de precipitaciones
Ayer
Alta -- | Baja -- ° F
Precip. -- pul
Presión 29.91 pul
Visibilidad 10.0 Millas
Nubes Nublado 2400 ft
Punto de rocío 71 ° F
Humedad 75%
Precipitaciones 0.83 pul
Espesor de la nieve No disponible.
6:10 AM 7:42 PM
Gibosa menguante, 54% visible
METAR KUNU 241935Z AUTO 20013G16KT 10SM OVC024 27/22 A2991 RMK AO2 T02650218
Presión 29.91 pul
Visibilidad 10.0 Millas
Nubes Nublado 2400 ft
Punto de rocío 71 ° F
Humedad 75%
Precipitaciones 0.83 pul
Espesor de la nieve No disponible.
6:10 AM 7:42 PM
Gibosa menguante, 54% visible
METAR KUNU 241935Z AUTO 20013G16KT 10SM OVC024 27/22 A2991 RMK AO2 T02650218

10-Day Weather Forecast

Almanac

Astronomía

Aug. 24, 2016 Salida Puesta
Hora real
Crepúsculo civil
Crepúsculo náutico
Crepúsculo astronómico
Luna
Horas de luz
Horas de luz
Tomorrow will be .
, % of the Moon is Illuminated

Extremos de hoy

Máximos del estado Bajos del estado

Community

WunderPhotos

Upload Photos

1,934,689 ¡fotos cargadas!

WunderBlog® & News

Nearby

Calidad del aire

  Calidad del aire Índice AQ Contaminante
Not available.

Grosos de nieve

Estación Profundido Altura

Actividad de terremotos

Ciudad Distance Mag. Tiempo y dato
Magnitud mínima muestra es 2,5.

Temperaturas de aguas costeras

Lugar Temperatura

Stations

Estaciones meteorológicas cercanas

Ubicación de la estación Temp. Vientos helados Punto de rocío Humedad Viento Precip. Alt Actualizado Tipo
                   

Watches & Warnings

There are currently no watches in effect.